createdAt,value
2022-09-18T00:02:17.001Z,0.97
2022-09-18T00:07:23.261Z,1.18
2022-09-18T00:12:29.620Z,0.94
2022-09-18T00:17:35.937Z,1.04
2022-09-18T00:22:44.622Z,0.92
2022-09-18T00:27:49.995Z,1.12
2022-09-18T00:32:56.440Z,1.12
2022-09-18T00:38:03.966Z,1.05
2022-09-18T00:43:11.207Z,0.89
2022-09-18T00:48:17.640Z,1.17
2022-09-18T00:53:23.871Z,1.16
2022-09-18T00:58:30.109Z,1.78
2022-09-18T01:03:36.366Z,1.09
2022-09-18T01:08:44.324Z,0.95
2022-09-18T01:13:49.547Z,1.03
2022-09-18T01:18:55.817Z,1.02
2022-09-18T01:24:02.172Z,1.09
2022-09-18T01:29:08.485Z,1.02
2022-09-18T01:34:14.809Z,1.03
2022-09-18T01:39:21.097Z,1.31
2022-09-18T01:44:27.317Z,0.93
2022-09-18T01:49:33.582Z,0.96
2022-09-18T01:54:41.085Z,0.96
2022-09-18T01:59:48.516Z,0.94
2022-09-18T02:04:54.671Z,0.83
2022-09-18T02:10:00.922Z,0.84
2022-09-18T02:15:07.353Z,0.79
2022-09-18T02:20:13.611Z,1.34
2022-09-18T02:25:19.862Z,0.90
2022-09-18T02:30:26.150Z,0.89
2022-09-18T02:35:32.392Z,0.82
2022-09-18T02:40:38.770Z,1.25
2022-09-18T02:45:45.086Z,0.96
2022-09-18T02:50:51.345Z,0.90
2022-09-18T02:55:57.637Z,1.15
2022-09-18T03:01:04.001Z,1.66
2022-09-18T03:06:10.341Z,0.94
2022-09-18T03:11:16.624Z,0.94
2022-09-18T03:16:23.003Z,0.90
2022-09-18T03:21:29.243Z,1.22
2022-09-18T03:26:35.495Z,1.17
2022-09-18T03:31:41.830Z,1.01
2022-09-18T03:36:49.209Z,0.75
2022-09-18T03:41:55.505Z,0.98
2022-09-18T03:47:01.734Z,0.83
2022-09-18T03:52:07.981Z,0.81
2022-09-18T03:57:14.258Z,1.62
2022-09-18T04:02:20.540Z,0.79
2022-09-18T04:07:26.952Z,0.70
2022-09-18T04:12:33.469Z,0.93
2022-09-18T04:17:39.721Z,0.78
2022-09-18T04:22:46.000Z,1.02
2022-09-18T04:27:52.478Z,0.91
2022-09-18T04:32:58.765Z,0.69
2022-09-18T04:38:05.018Z,0.87
2022-09-18T04:43:11.403Z,0.85
2022-09-18T04:48:21.827Z,0.89
2022-09-18T04:53:37.365Z,1.02
2022-09-18T04:58:36.771Z,1.33
2022-09-18T05:03:38.259Z,1.02
2022-09-18T05:08:36.684Z,1.02
2022-09-18T05:16:09.963Z,0.75
2022-09-18T05:18:53.352Z,0.82
2022-09-18T05:23:52.758Z,0.84
2022-09-18T05:28:58.968Z,0.82
2022-09-18T05:34:08.862Z,0.85
2022-09-18T05:39:18.756Z,1.05
2022-09-18T05:49:42.447Z,1.61
2022-09-18T05:54:40.236Z,0.92
2022-09-18T05:59:54.533Z,0.84
2022-09-18T06:04:59.239Z,0.95
2022-09-18T06:17:02.771Z,2.51
2022-09-18T06:23:24.804Z,1.44
2022-09-18T06:28:24.322Z,0.90
2022-09-18T06:33:32.730Z,1.05
2022-09-18T06:38:55.423Z,0.84
2022-09-18T06:43:46.964Z,0.98
2022-09-18T06:48:47.337Z,0.92
2022-09-18T06:53:56.575Z,0.89
2022-09-18T06:59:07.102Z,1.72
2022-09-18T07:04:03.364Z,1.30
2022-09-18T07:09:09.676Z,1.07
2022-09-18T07:14:16.094Z,0.96
2022-09-18T07:19:22.384Z,0.98
2022-09-18T07:24:28.794Z,1.05
2022-09-18T07:29:35.099Z,0.99
2022-09-18T07:34:41.368Z,1.01
2022-09-18T07:39:47.704Z,1.02
2022-09-18T07:44:53.960Z,1.09
2022-09-18T07:50:00.295Z,1.17
2022-09-18T07:55:07.770Z,0.97
2022-09-18T08:00:14.137Z,0.95
2022-09-18T08:05:20.388Z,1.39
2022-09-18T08:10:26.892Z,0.96
2022-09-18T08:15:33.114Z,0.85
2022-09-18T08:20:39.964Z,0.86
2022-09-18T08:25:46.358Z,0.76
2022-09-18T08:30:52.839Z,1.04
2022-09-18T08:35:59.097Z,0.67
2022-09-18T08:41:05.385Z,0.71
2022-09-18T08:46:12.731Z,0.57
2022-09-18T08:51:20.089Z,0.44
2022-09-18T08:56:26.422Z,0.50
2022-09-18T09:01:32.937Z,0.86
2022-09-18T09:06:39.265Z,0.65
2022-09-18T09:11:45.561Z,0.78
2022-09-18T09:16:51.885Z,0.81
2022-09-18T09:21:58.260Z,0.88
2022-09-18T09:27:04.496Z,0.94
2022-09-18T09:32:11.427Z,0.79
2022-09-18T09:37:17.659Z,1.10
2022-09-18T09:42:23.971Z,0.87
2022-09-18T09:47:30.220Z,0.81
2022-09-18T09:52:36.594Z,0.88
2022-09-18T09:57:42.851Z,0.88
2022-09-18T10:02:49.152Z,1.18
2022-09-18T10:07:56.697Z,1.68
2022-09-18T10:13:03.053Z,0.84
2022-09-18T10:18:12.319Z,1.26
2022-09-18T10:23:16.376Z,0.77
2022-09-18T10:28:22.596Z,0.78
2022-09-18T10:33:28.978Z,0.86
2022-09-18T10:38:35.283Z,1.26
2022-09-18T10:43:41.844Z,1.27
2022-09-18T10:48:48.183Z,0.88
2022-09-18T10:53:54.627Z,1.28
2022-09-18T10:59:00.988Z,0.81
2022-09-18T11:04:07.334Z,0.82
2022-09-18T11:09:13.607Z,0.55
2022-09-18T11:14:19.924Z,1.23
2022-09-18T11:19:26.290Z,1.30
2022-09-18T11:24:32.602Z,0.90
2022-09-18T11:29:38.863Z,1.30
2022-09-18T11:34:45.190Z,0.81
2022-09-18T11:39:51.406Z,0.67
2022-09-18T11:44:57.729Z,1.22
2022-09-18T11:50:04.033Z,0.99
2022-09-18T11:55:10.298Z,1.05
2022-09-18T12:00:16.501Z,1.11
2022-09-18T12:05:22.840Z,1.22
2022-09-18T12:10:27.792Z,1.07
2022-09-18T12:15:34.303Z,1.21
2022-09-18T12:20:40.625Z,1.15
2022-09-18T12:25:47.052Z,1.87
2022-09-18T12:30:53.366Z,0.98
2022-09-18T12:35:59.696Z,1.14
2022-09-18T12:41:07.784Z,1.07
2022-09-18T12:46:14.103Z,1.33
2022-09-18T12:51:21.503Z,1.07
2022-09-18T12:56:27.775Z,1.25
2022-09-18T13:01:34.022Z,0.98
2022-09-18T13:06:40.300Z,0.92
2022-09-18T13:11:46.665Z,1.03
2022-09-18T13:16:53.644Z,0.91
2022-09-18T13:21:59.946Z,0.88
2022-09-18T13:27:06.203Z,1.02
2022-09-18T13:32:13.582Z,1.47
2022-09-18T13:37:20.882Z,1.00
2022-09-18T13:42:28.191Z,0.92
2022-09-18T13:47:34.394Z,1.07
2022-09-18T13:52:40.660Z,1.13
2022-09-18T13:57:46.982Z,1.17
2022-09-18T14:02:53.333Z,1.23
2022-09-18T14:07:59.585Z,1.89
2022-09-18T14:13:05.881Z,1.53
2022-09-18T14:18:12.126Z,1.39
2022-09-18T14:23:18.455Z,1.01
2022-09-18T14:28:24.694Z,0.78
2022-09-18T14:33:30.961Z,0.64
2022-09-18T14:38:37.244Z,0.92
2022-09-18T14:43:43.604Z,1.46
2022-09-18T14:48:49.910Z,0.98
2022-09-18T14:53:56.219Z,1.27
2022-09-18T14:59:02.581Z,0.81
2022-09-18T15:04:15.155Z,0.90
2022-09-18T15:09:41.886Z,0.74
2022-09-18T15:14:47.325Z,0.98
2022-09-18T15:21:59.445Z,0.95
2022-09-18T15:24:28.574Z,1.60
2022-09-18T15:29:39.050Z,1.31
2022-09-18T15:35:52.133Z,1.31
2022-09-18T15:40:06.211Z,1.48
2022-09-18T15:45:53.799Z,1.48
2022-09-18T15:54:28.570Z,2.05
2022-09-18T16:00:50.793Z,1.65
2022-09-18T16:05:50.841Z,1.84
2022-09-18T16:12:53.657Z,1.29
2022-09-18T16:18:02.935Z,2.31
2022-09-18T16:23:05.931Z,2.73
2022-09-18T16:26:09.344Z,2.56
2022-09-18T16:31:07.340Z,2.08
2022-09-18T16:36:23.506Z,1.85
2022-09-18T16:41:40.079Z,2.78
2022-09-18T16:46:46.941Z,2.28
2022-09-18T16:51:37.908Z,1.67
2022-09-18T17:04:46.927Z,1.35
2022-09-18T17:14:38.037Z,1.30
2022-09-18T17:19:40.870Z,1.29
2022-09-18T17:24:37.372Z,1.51
2022-09-18T17:29:49.474Z,1.58
2022-09-18T17:35:17.734Z,1.16
2022-09-18T17:48:13.570Z,1.04
2022-09-18T17:54:26.832Z,0.83
2022-09-18T18:01:18.095Z,0.80
2022-09-18T18:04:39.797Z,0.80
2022-09-18T18:10:17.766Z,0.84
2022-09-18T18:18:03.756Z,1.47
2022-09-18T18:19:52.536Z,0.97
2022-09-18T18:25:00.036Z,1.25
2022-09-18T18:30:22.546Z,0.74
2022-09-18T18:35:09.132Z,1.54
2022-09-18T18:40:17.122Z,1.45
2022-09-18T18:45:23.398Z,1.05
2022-09-18T18:50:29.887Z,1.29
2022-09-18T18:55:38.136Z,15.24
2022-09-18T19:00:45.920Z,7.60
2022-09-18T19:05:53.047Z,3.16
2022-09-18T19:10:59.560Z,3.59
2022-09-18T19:16:06.415Z,5.73
2022-09-18T19:21:16.077Z,3.35
2022-09-18T19:26:42.395Z,4.80
2022-09-18T19:31:28.989Z,3.49
2022-09-18T19:36:51.197Z,3.20
2022-09-18T19:42:07.118Z,3.22
2022-09-18T19:46:43.989Z,3.21
2022-09-18T19:51:52.691Z,3.01
2022-09-18T19:58:41.783Z,2.96
2022-09-18T20:02:10.795Z,2.81
2022-09-18T20:07:07.766Z,4.74
2022-09-18T20:12:14.208Z,6.97
2022-09-18T20:17:21.204Z,3.31
2022-09-18T20:22:28.414Z,4.90
2022-09-18T20:38:17.215Z,6.30
2022-09-18T21:09:39.852Z,3.12
2022-09-18T21:15:53.254Z,1.81
2022-09-18T21:20:59.916Z,1.51
2022-09-18T21:26:13.437Z,1.41
2022-09-18T21:31:16.640Z,2.43
2022-09-18T21:36:23.181Z,1.63
2022-09-18T21:41:29.621Z,2.68
2022-09-18T21:46:36.080Z,1.95
2022-09-18T21:51:42.385Z,2.04
2022-09-18T21:56:48.671Z,1.99
2022-09-18T22:01:55.623Z,2.19
2022-09-18T22:07:01.887Z,2.02
2022-09-18T22:12:08.265Z,2.30
2022-09-18T22:17:14.873Z,2.45
2022-09-18T22:22:21.212Z,2.44
2022-09-18T22:27:28.043Z,2.47
2022-09-18T22:32:34.728Z,4.31
2022-09-18T22:37:41.168Z,3.02
2022-09-18T22:42:47.448Z,4.21
2022-09-18T22:47:53.708Z,4.29
2022-09-18T22:52:59.963Z,2.74
2022-09-18T22:58:09.392Z,2.28
2022-09-18T23:03:16.750Z,2.42
2022-09-18T23:08:26.097Z,2.41
2022-09-18T23:13:32.504Z,2.73
2022-09-18T23:18:38.833Z,2.79
2022-09-18T23:23:45.155Z,2.84
2022-09-18T23:28:51.422Z,2.33
2022-09-18T23:33:57.645Z,2.86
2022-09-18T23:39:03.924Z,3.24
2022-09-18T23:44:10.367Z,3.87
2022-09-18T23:49:16.737Z,3.92
2022-09-18T23:54:23.059Z,4.21
2022-09-18T23:59:29.383Z,4.02
